sensor_id;sensor_type;location;lat;lon;timestamp;temperature;humidity
15152;DHT22;7676;50.900;6.234;2023-05-15T00:13:50;17.20;99.90
15152;DHT22;7676;50.900;6.234;2023-05-15T00:28:52;17.00;99.90
15152;DHT22;7676;50.900;6.234;2023-05-15T00:43:55;17.00;99.90
15152;DHT22;7676;50.900;6.234;2023-05-15T00:59:01;17.30;99.90
15152;DHT22;7676;50.900;6.234;2023-05-15T01:14:05;17.00;99.90
15152;DHT22;7676;50.900;6.234;2023-05-15T01:29:19;16.80;99.90
15152;DHT22;7676;50.900;6.234;2023-05-15T01:44:29;16.90;99.90
15152;DHT22;7676;50.900;6.234;2023-05-15T01:59:36;17.10;99.90
15152;DHT22;7676;50.900;6.234;2023-05-15T02:14:39;16.80;99.90
15152;DHT22;7676;50.900;6.234;2023-05-15T02:29:58;16.10;99.90
15152;DHT22;7676;50.900;6.234;2023-05-15T02:45:05;15.60;99.90
15152;DHT22;7676;50.900;6.234;2023-05-15T03:00:09;15.50;99.90
15152;DHT22;7676;50.900;6.234;2023-05-15T03:15:14;15.60;99.90
15152;DHT22;7676;50.900;6.234;2023-05-15T03:30:17;15.70;99.90
15152;DHT22;7676;50.900;6.234;2023-05-15T03:45:19;15.80;99.90
15152;DHT22;7676;50.900;6.234;2023-05-15T04:00:23;16.00;99.90
15152;DHT22;7676;50.900;6.234;2023-05-15T04:15:26;15.30;99.90
15152;DHT22;7676;50.900;6.234;2023-05-15T04:30:30;15.30;99.90
15152;DHT22;7676;50.900;6.234;2023-05-15T04:45:32;15.40;99.90
15152;DHT22;7676;50.900;6.234;2023-05-15T05:00:35;14.30;99.90
15152;DHT22;7676;50.900;6.234;2023-05-15T05:15:37;14.30;99.90
15152;DHT22;7676;50.900;6.234;2023-05-15T05:30:46;13.90;99.90
15152;DHT22;7676;50.900;6.234;2023-05-15T05:45:49;14.90;99.90
15152;DHT22;7676;50.900;6.234;2023-05-15T06:00:51;14.40;99.90
15152;DHT22;7676;50.900;6.234;2023-05-15T06:15:54;14.40;99.90
15152;DHT22;7676;50.900;6.234;2023-05-15T06:30:59;14.60;99.90
15152;DHT22;7676;50.900;6.234;2023-05-15T06:46:01;16.10;99.90
15152;DHT22;7676;50.900;6.234;2023-05-15T07:01:04;16.60;99.90
15152;DHT22;7676;50.900;6.234;2023-05-15T07:16:08;16.90;99.90
15152;DHT22;7676;50.900;6.234;2023-05-15T07:31:10;17.00;99.90
15152;DHT22;7676;50.900;6.234;2023-05-15T07:46:13;19.40;99.90
15152;DHT22;7676;50.900;6.234;2023-05-15T08:01:15;18.10;99.90
15152;DHT22;7676;50.900;6.234;2023-05-15T08:16:18;18.70;99.90
15152;DHT22;7676;50.900;6.234;2023-05-15T08:31:20;18.80;99.90
15152;DHT22;7676;50.900;6.234;2023-05-15T08:46:23;18.60;99.90
15152;DHT22;7676;50.900;6.234;2023-05-15T09:01:27;19.70;99.90
15152;DHT22;7676;50.900;6.234;2023-05-15T09:16:29;20.00;99.90
15152;DHT22;7676;50.900;6.234;2023-05-15T09:31:32;20.10;99.90
15152;DHT22;7676;50.900;6.234;2023-05-15T09:46:39;20.40;99.90
15152;DHT22;7676;50.900;6.234;2023-05-15T10:01:43;20.40;99.90
15152;DHT22;7676;50.900;6.234;2023-05-15T10:16:47;20.30;99.90
15152;DHT22;7676;50.900;6.234;2023-05-15T10:31:53;20.60;99.90
15152;DHT22;7676;50.900;6.234;2023-05-15T10:46:56;20.30;99.90
15152;DHT22;7676;50.900;6.234;2023-05-15T11:02:30;20.60;99.90
15152;DHT22;7676;50.900;6.234;2023-05-15T11:18:05;20.80;99.90
15152;DHT22;7676;50.900;6.234;2023-05-15T11:33:12;21.40;99.90
15152;DHT22;7676;50.900;6.234;2023-05-15T11:48:16;21.90;99.90
15152;DHT22;7676;50.900;6.234;2023-05-15T12:03:25;20.30;99.90
15152;DHT22;7676;50.900;6.234;2023-05-15T12:18:30;21.40;99.90
15152;DHT22;7676;50.900;6.234;2023-05-15T12:33:32;21.20;99.90
15152;DHT22;7676;50.900;6.234;2023-05-15T12:48:35;21.10;99.90
15152;DHT22;7676;50.900;6.234;2023-05-15T13:03:38;21.80;99.90
15152;DHT22;7676;50.900;6.234;2023-05-15T13:18:40;20.60;99.90
15152;DHT22;7676;50.900;6.234;2023-05-15T13:33:43;20.20;99.90
15152;DHT22;7676;50.900;6.234;2023-05-15T13:48:45;20.20;99.90
15152;DHT22;7676;50.900;6.234;2023-05-15T14:03:48;20.00;99.90
15152;DHT22;7676;50.900;6.234;2023-05-15T14:18:50;19.90;99.90
15152;DHT22;7676;50.900;6.234;2023-05-15T14:33:53;19.90;99.90
15152;DHT22;7676;50.900;6.234;2023-05-15T14:48:56;20.00;99.90
15152;DHT22;7676;50.900;6.234;2023-05-15T15:03:59;19.10;99.90
15152;DHT22;7676;50.900;6.234;2023-05-15T15:19:03;18.90;99.90
15152;DHT22;7676;50.900;6.234;2023-05-15T15:34:06;18.50;99.90
15152;DHT22;7676;50.900;6.234;2023-05-15T15:49:10;18.70;99.90
15152;DHT22;7676;50.900;6.234;2023-05-15T16:04:13;18.10;99.90
15152;DHT22;7676;50.900;6.234;2023-05-15T16:19:16;18.80;99.90
15152;DHT22;7676;50.900;6.234;2023-05-15T16:34:18;19.30;99.90
15152;DHT22;7676;50.900;6.234;2023-05-15T16:49:21;18.60;99.90
15152;DHT22;7676;50.900;6.234;2023-05-15T17:04:24;17.60;99.90
15152;DHT22;7676;50.900;6.234;2023-05-15T17:19:27;17.30;99.90
15152;DHT22;7676;50.900;6.234;2023-05-15T17:34:29;17.50;99.90
15152;DHT22;7676;50.900;6.234;2023-05-15T17:49:32;17.20;99.90
15152;DHT22;7676;50.900;6.234;2023-05-15T18:04:35;16.50;99.90
15152;DHT22;7676;50.900;6.234;2023-05-15T18:19:40;16.20;99.90
15152;DHT22;7676;50.900;6.234;2023-05-15T18:34:48;15.70;99.90
15152;DHT22;7676;50.900;6.234;2023-05-15T18:49:52;15.40;99.90
15152;DHT22;7676;50.900;6.234;2023-05-15T19:04:55;15.20;99.90
15152;DHT22;7676;50.900;6.234;2023-05-15T19:19:57;15.20;99.90
15152;DHT22;7676;50.900;6.234;2023-05-15T19:35:00;14.80;99.90
15152;DHT22;7676;50.900;6.234;2023-05-15T19:50:03;14.80;99.90
15152;DHT22;7676;50.900;6.234;2023-05-15T20:05:07;14.90;99.90
15152;DHT22;7676;50.900;6.234;2023-05-15T20:20:10;15.20;99.90
15152;DHT22;7676;50.900;6.234;2023-05-15T20:35:13;15.20;99.90
15152;DHT22;7676;50.900;6.234;2023-05-15T20:50:17;15.40;99.90
15152;DHT22;7676;50.900;6.234;2023-05-15T21:05:20;15.00;99.90
15152;DHT22;7676;50.900;6.234;2023-05-15T21:20:22;15.00;99.90
15152;DHT22;7676;50.900;6.234;2023-05-15T21:35:25;14.80;99.90
15152;DHT22;7676;50.900;6.234;2023-05-15T21:50:30;14.10;99.90
15152;DHT22;7676;50.900;6.234;2023-05-15T22:05:35;14.20;99.90
15152;DHT22;7676;50.900;6.234;2023-05-15T22:20:37;14.20;99.90
15152;DHT22;7676;50.900;6.234;2023-05-15T22:35:40;13.50;99.90
15152;DHT22;7676;50.900;6.234;2023-05-15T22:50:43;14.00;99.90
15152;DHT22;7676;50.900;6.234;2023-05-15T23:05:45;13.90;99.90
15152;DHT22;7676;50.900;6.234;2023-05-15T23:20:48;14.00;99.90
15152;DHT22;7676;50.900;6.234;2023-05-15T23:35:51;13.90;99.90
15152;DHT22;7676;50.900;6.234;2023-05-15T23:50:54;13.80;99.90
